Findlay Airport
KFDY : now visible

Airfield :











YOU CAN JOIN US ON...

 
LOGIN :

Register | Disclaimer

   EN    FR    IT 

 









Legend :    VFR   Marginal VFR   IFR   Intensive IFR   Very Intensive IFR
Visi :
Ceiling :
>= 8 km
>= 3000ft
5 to 8 km
1000 to 3000 ft
1500m to 5 km
500 to 1000 ft
800 to 1500m
200 to 500 ft
< 800m
< 200 ft
Symbols :   Thunderstorms  Fog  Heavy snow  Heavy precipitations  Wind > 20 kt






- Airport Elevation : 813 ft


KFDY - Findlay

CURRENT METAR :
  • 101253Z AUTO 32014G22KT 10SM CLR 03/M03 A2990 RMK AO2 PK WND 30026/1239 SLP126 T00331033

EXPIRED METARs :
  • 101153Z AUTO 29014KT 10SM CLR 02/M03 A2987 RMK AO2 SLP117 7//// T00171028 10028 20011 53025
  • 101053Z AUTO 30013KT 10SM FEW045 SCT065 02/M03 A2983 RMK AO2 SLP103 T00171033

TAF KFDY
Valid from the 10 at 12:00 until the 11 at 12:00 UTC


101148Z 1012/1112 29012G20KT P6SM FEW250
FM101600 31018G27KT P6SM BKN060
FM102300 29008KT P6SM SCT060



MET'MAP, your aeronautical weather chart ! - Copyright ORBIFLY December 2007 - Disclaimer

ORBIFLY MET'MAP TEAM :

Programming & Development : Alexandra Zaïnal
Concept & original design : Baudouin d'Aumeries
Assistance for programming : Marc-Olivier Méhu
Technical & hardware support : Manuel Goepfert

Contact : metmap@orbifly.com




SOURCES & CREDITS :

   NOAA       Earth
Advisory